Nickel Mines, Pennsylvania
Current Conditions -  °F | °C
As of 8:35 AM on Wednesday 22 Oct 2014 (Local Time) from KMQS Reporting Station
Light Rain Light Rain  
Wind Chill: 54°   Ceiling: 1100
Heat Index: 54°   Visibility: 10mi
Dew Point: 52°   Wind: 8mph
Humidity: 94%   Direction: 10°N
Pressure: 29.91"   Gusts: 17mph
Location:  39.9757°N, 76.0913°W
Report Text: KMQS 221235Z AUTO 01007G15KT 10SM -RA OVC011 12/11 A2991 RMK AO2
Loading
Personal Weather Stations






























Interactive Weather Map
Tropical Storm Tracking
New forecast layout! Learn more

10-Day Weather Forecast

Advertisements
Track Severe Weather on mobile